Time,TemperatureF,DewpointF,PressureIn,WindDirection,WindDirectionDegrees,WindSpeedMPH,WindSpeedGustMPH,Humidity,HourlyPrecipIn,Conditions,Clouds,dailyrainin,SoftwareType,DateUTC
2013-07-18 00:01:00,65.0,41.0,32.07,NW,305,4.0,10.0,41,0.00,,,0.01,weatherlink.com 1.10,2013-07-18 06:01:00,
2013-07-18 00:16:00,64.8,41.0,32.08,WNW,290,11.0,13.0,42,0.00,,,0.00,weatherlink.com 1.10,2013-07-18 06:16:00,
2013-07-18 00:31:00,64.5,41.0,32.08,WNW,292,10.0,14.0,43,0.00,,,0.00,weatherlink.com 1.10,2013-07-18 06:31:00,
2013-07-18 00:47:00,64.4,41.0,32.08,WNW,296,11.0,16.0,43,0.00,,,0.00,weatherlink.com 1.10,2013-07-18 06:47:00,
2013-07-18 01:02:00,64.3,41.0,32.08,WNW,294,9.0,16.0,43,0.00,,,0.00,weatherlink.com 1.10,2013-07-18 07:02:00,
2013-07-18 01:17:00,64.4,41.0,32.08,WNW,292,11.0,16.0,43,0.00,,,0.00,weatherlink.com 1.10,2013-07-18 07:17:00,
2013-07-18 01:32:00,64.2,40.0,32.08,WNW,300,7.0,14.0,42,0.00,,,0.00,weatherlink.com 1.10,2013-07-18 07:32:00,
2013-07-18 01:47:00,64.1,40.0,32.09,NW,311,7.0,12.0,42,0.00,,,0.00,weatherlink.com 1.10,2013-07-18 07:47:00,
2013-07-18 02:02:00,64.2,40.0,32.09,WNW,301,10.0,13.0,41,0.00,,,0.00,weatherlink.com 1.10,2013-07-18 08:02:00,
2013-07-18 02:17:00,64.0,40.0,32.09,NW,320,10.0,14.0,42,0.00,,,0.00,weatherlink.com 1.10,2013-07-18 08:17:00,
2013-07-18 02:32:00,63.9,41.0,32.09,WNW,293,12.0,14.0,43,0.00,,,0.00,weatherlink.com 1.10,2013-07-18 08:32:00,
2013-07-18 02:47:00,63.8,41.0,32.09,NW,311,8.0,16.0,43,0.00,,,0.00,weatherlink.com 1.10,2013-07-18 08:47:00,
2013-07-18 03:02:00,63.6,41.0,32.09,WNW,291,10.0,14.0,44,0.00,,,0.00,weatherlink.com 1.10,2013-07-18 09:02:00,
2013-07-18 03:17:00,63.4,42.0,32.09,WNW,292,9.0,14.0,45,0.00,,,0.00,weatherlink.com 1.10,2013-07-18 09:17:00,
2013-07-18 03:32:00,62.8,41.0,32.10,WNW,282,10.0,13.0,45,0.00,,,0.00,weatherlink.com 1.10,2013-07-18 09:32:00,
2013-07-18 03:47:00,62.7,41.0,32.09,WNW,292,9.0,12.0,45,0.00,,,0.00,weatherlink.com 1.10,2013-07-18 09:47:00,
2013-07-18 04:02:00,62.3,41.0,32.10,WNW,291,10.0,12.0,46,0.00,,,0.00,weatherlink.com 1.10,2013-07-18 10:02:00,
2013-07-18 04:17:00,61.9,41.0,32.10,WNW,294,7.0,10.0,46,0.00,,,0.00,weatherlink.com 1.10,2013-07-18 10:17:00,
2013-07-18 04:32:00,61.5,41.0,32.10,WNW,291,6.0,9.0,47,0.00,,,0.00,weatherlink.com 1.10,2013-07-18 10:32:00,
2013-07-18 04:47:00,61.2,41.0,32.10,WNW,294,5.0,9.0,48,0.00,,,0.00,weatherlink.com 1.10,2013-07-18 10:47:00,
2013-07-18 05:02:00,60.9,41.0,32.10,WNW,292,3.0,7.0,49,0.00,,,0.00,weatherlink.com 1.10,2013-07-18 11:02:00,
2013-07-18 05:17:00,60.9,41.0,32.11,WNW,284,6.0,7.0,48,0.00,,,0.00,weatherlink.com 1.10,2013-07-18 11:17:00,
2013-07-18 05:32:00,61.5,40.0,32.11,WNW,292,3.0,6.0,45,0.00,,,0.00,weatherlink.com 1.10,2013-07-18 11:32:00,
2013-07-18 05:47:00,61.6,39.0,32.12,WSW,255,5.0,6.0,44,0.00,,,0.00,weatherlink.com 1.10,2013-07-18 11:47:00,
2013-07-18 06:02:00,60.9,40.0,32.12,SW,217,5.0,8.0,46,0.00,,,0.00,weatherlink.com 1.10,2013-07-18 12:02:00,
2013-07-18 06:17:00,60.5,40.0,32.13,South,190,4.0,8.0,48,0.00,,,0.00,weatherlink.com 1.10,2013-07-18 12:17:00,
2013-07-18 06:32:00,60.2,41.0,32.13,SSW,193,6.0,7.0,49,0.00,,,0.00,weatherlink.com 1.10,2013-07-18 12:32:00,
2013-07-18 06:47:00,60.0,41.0,32.13,South,186,6.0,9.0,50,0.00,,,0.00,weatherlink.com 1.10,2013-07-18 12:47:00,
2013-07-18 07:02:00,60.0,41.0,32.14,South,188,5.0,7.0,50,0.00,,,0.00,weatherlink.com 1.10,2013-07-18 13:02:00,
2013-07-18 07:17:00,60.4,41.0,32.14,South,190,6.0,8.0,49,0.00,,,0.00,weatherlink.com 1.10,2013-07-18 13:17:00,
2013-07-18 07:32:00,60.9,41.0,32.14,SSW,198,7.0,9.0,48,0.00,,,0.00,weatherlink.com 1.10,2013-07-18 13:32:00,
2013-07-18 07:48:00,61.0,41.0,32.14,South,172,6.0,9.0,48,0.00,,,0.00,weatherlink.com 1.10,2013-07-18 13:48:00,
2013-07-18 08:03:00,61.3,42.0,32.15,SSE,165,7.0,9.0,49,0.00,,,0.00,weatherlink.com 1.10,2013-07-18 14:03:00,
2013-07-18 08:18:00,61.0,43.0,32.15,SSE,156,5.0,9.0,51,0.00,,,0.00,weatherlink.com 1.10,2013-07-18 14:18:00,
2013-07-18 08:33:00,61.5,43.0,32.15,SSE,164,7.0,8.0,51,0.00,,,0.00,weatherlink.com 1.10,2013-07-18 14:33:00,
2013-07-18 08:48:00,62.2,43.0,32.15,SSW,205,3.0,11.0,50,0.00,,,0.00,weatherlink.com 1.10,2013-07-18 14:48:00,
2013-07-18 09:03:00,62.2,44.0,32.15,South,182,5.0,10.0,51,0.00,,,0.00,weatherlink.com 1.10,2013-07-18 15:03:00,
2013-07-18 09:18:00,62.6,46.0,32.15,SSE,159,5.0,9.0,54,0.00,,,0.00,weatherlink.com 1.10,2013-07-18 15:18:00,
2013-07-18 09:33:00,62.8,44.0,32.15,South,172,3.0,9.0,51,0.00,,,0.00,weatherlink.com 1.10,2013-07-18 15:33:00,
2013-07-18 09:48:00,63.8,45.0,32.14,SSW,212,5.0,7.0,50,0.00,,,0.00,weatherlink.com 1.10,2013-07-18 15:48:00,
2013-07-18 10:03:00,64.0,44.0,32.14,WSW,244,3.0,7.0,49,0.00,,,0.00,weatherlink.com 1.10,2013-07-18 16:03:00,
2013-07-18 10:18:00,64.4,44.0,32.14,WNW,290,2.0,8.0,48,0.00,,,0.00,weatherlink.com 1.10,2013-07-18 16:18:00,
2013-07-18 10:33:00,65.6,42.0,32.13,NW,306,2.0,7.0,42,0.00,,,0.00,weatherlink.com 1.10,2013-07-18 16:33:00,
2013-07-18 10:48:00,66.2,42.0,32.12,SSW,209,1.0,10.0,41,0.00,,,0.00,weatherlink.com 1.10,2013-07-18 16:48:00,
2013-07-18 11:03:00,67.0,42.0,32.12,WNW,285,3.0,6.0,41,0.00,,,0.00,weatherlink.com 1.10,2013-07-18 17:03:00,
2013-07-18 11:18:00,67.2,43.0,32.11,NW,320,3.0,9.0,42,0.00,,,0.00,weatherlink.com 1.10,2013-07-18 17:18:00,
2013-07-18 11:34:00,67.7,40.0,32.11,NNW,338,1.0,7.0,37,0.00,,,0.00,weatherlink.com 1.10,2013-07-18 17:34:00,
2013-07-18 11:49:00,68.1,41.0,32.11,NNE,33,3.0,7.0,37,0.00,,,0.00,weatherlink.com 1.10,2013-07-18 17:49:00,
2013-07-18 12:04:00,69.0,43.0,32.10,WNW,298,1.0,8.0,39,0.00,,,0.00,weatherlink.com 1.10,2013-07-18 18:04:00,
2013-07-18 12:19:00,69.9,42.0,32.09,WNW,290,4.0,8.0,37,0.00,,,0.00,weatherlink.com 1.10,2013-07-18 18:19:00,
2013-07-18 12:34:00,69.6,41.0,32.09,WNW,303,6.0,12.0,35,0.00,,,0.00,weatherlink.com 1.10,2013-07-18 18:34:00,
2013-07-18 12:49:00,70.1,42.0,32.09,West,281,6.0,8.0,36,0.00,,,0.00,weatherlink.com 1.10,2013-07-18 18:49:00,
2013-07-18 13:04:00,70.4,41.0,32.09,WNW,286,8.0,10.0,35,0.00,,,0.00,weatherlink.com 1.10,2013-07-18 19:04:00,
2013-07-18 13:19:00,71.8,42.0,32.08,West,261,3.0,7.0,34,0.00,,,0.00,weatherlink.com 1.10,2013-07-18 19:19:00,
2013-07-18 13:34:00,71.6,41.0,32.08,SW,221,6.0,9.0,33,0.00,,,0.00,weatherlink.com 1.10,2013-07-18 19:34:00,
2013-07-18 13:49:00,72.0,42.0,32.08,WNW,286,4.0,10.0,34,0.00,,,0.00,weatherlink.com 1.10,2013-07-18 19:49:00,
2013-07-18 14:04:00,72.7,40.0,32.08,WNW,298,5.0,14.0,31,0.00,,,0.00,weatherlink.com 1.10,2013-07-18 20:04:00,
2013-07-18 14:19:00,72.6,41.0,32.07,WNW,300,2.0,12.0,32,0.00,,,0.00,weatherlink.com 1.10,2013-07-18 20:19:00,
2013-07-18 14:34:00,72.8,40.0,32.07,NW,312,5.0,18.0,30,0.00,,,0.00,weatherlink.com 1.10,2013-07-18 20:34:00,
2013-07-18 14:49:00,73.6,35.0,32.06,SW,224,3.0,11.0,24,0.00,,,0.00,weatherlink.com 1.10,2013-07-18 20:49:00,
2013-07-18 15:04:00,75.1,37.0,32.08,NW,313,6.0,11.0,25,0.00,,,0.00,weatherlink.com 1.10,2013-07-18 21:04:00,
2013-07-18 15:19:00,74.8,36.0,32.05,SW,222,5.0,15.0,24,0.00,,,0.00,weatherlink.com 1.10,2013-07-18 21:19:00,
2013-07-18 15:34:00,76.2,35.0,32.05,WNW,288,5.0,11.0,22,0.00,,,0.00,weatherlink.com 1.10,2013-07-18 21:34:00,
2013-07-18 15:49:00,76.6,36.0,32.04,WNW,289,5.0,13.0,23,0.00,,,0.00,weatherlink.com 1.10,2013-07-18 21:49:00,
2013-07-18 16:04:00,76.2,31.0,32.04,WSW,257,8.0,13.0,19,0.00,,,0.00,weatherlink.com 1.10,2013-07-18 22:04:00,
2013-07-18 16:19:00,76.6,30.0,32.04,WNW,286,13.0,15.0,18,0.00,,,0.00,weatherlink.com 1.10,2013-07-18 22:19:00,
2013-07-18 16:34:00,77.5,32.0,32.03,West,274,9.0,16.0,19,0.00,,,0.00,weatherlink.com 1.10,2013-07-18 22:34:00,
2013-07-18 16:49:00,76.6,34.0,32.03,NW,311,3.0,14.0,21,0.00,,,0.00,weatherlink.com 1.10,2013-07-18 22:49:00,
2013-07-18 17:04:00,77.5,33.0,32.03,WNW,294,10.0,17.0,20,0.00,,,0.00,weatherlink.com 1.10,2013-07-18 23:04:00,
2013-07-18 17:19:00,77.4,34.0,32.03,WNW,299,7.0,13.0,21,0.00,,,0.00,weatherlink.com 1.10,2013-07-18 23:19:00,
2013-07-18 17:34:00,77.5,32.0,32.02,West,281,11.0,12.0,19,0.00,,,0.00,weatherlink.com 1.10,2013-07-18 23:34:00,
2013-07-18 17:49:00,77.0,30.0,32.02,WNW,288,11.0,12.0,18,0.00,,,0.00,weatherlink.com 1.10,2013-07-18 23:49:00,
2013-07-18 18:04:00,76.7,30.0,32.02,WNW,298,9.0,16.0,18,0.00,,,0.00,weatherlink.com 1.10,2013-07-19 00:04:00,
2013-07-18 18:19:00,76.6,30.0,32.02,NW,325,7.0,15.0,18,0.00,,,0.00,weatherlink.com 1.10,2013-07-19 00:19:00,
2013-07-18 18:34:00,76.9,29.0,32.01,WSW,251,4.0,12.0,17,0.00,,,0.00,weatherlink.com 1.10,2013-07-19 00:34:00,
2013-07-18 18:50:00,76.9,29.0,32.01,West,280,5.0,13.0,17,0.00,,,0.00,weatherlink.com 1.10,2013-07-19 00:50:00,
2013-07-18 19:04:00,76.8,30.0,32.01,WNW,286,5.0,10.0,18,0.00,,,0.00,weatherlink.com 1.10,2013-07-19 01:04:00,
2013-07-18 19:19:00,76.1,31.0,32.01,NW,309,2.0,13.0,19,0.00,,,0.00,weatherlink.com 1.10,2013-07-19 01:19:00,
2013-07-18 19:35:00,74.8,32.0,32.02,WNW,286,10.0,15.0,21,0.00,,,0.00,weatherlink.com 1.10,2013-07-19 01:35:00,
2013-07-18 19:50:00,74.4,31.0,32.01,WNW,286,3.0,16.0,20,0.00,,,0.00,weatherlink.com 1.10,2013-07-19 01:50:00,
2013-07-18 20:05:00,74.2,31.0,32.02,NW,306,5.0,13.0,20,0.00,,,0.00,weatherlink.com 1.10,2013-07-19 02:05:00,
2013-07-18 20:20:00,73.9,32.0,32.02,WNW,288,5.0,14.0,21,0.00,,,0.00,weatherlink.com 1.10,2013-07-19 02:20:00,
2013-07-18 20:35:00,73.8,31.0,32.02,WNW,292,8.0,12.0,21,0.00,,,0.00,weatherlink.com 1.10,2013-07-19 02:35:00,
2013-07-18 20:50:00,72.6,33.0,32.02,WNW,291,10.0,13.0,23,0.00,,,0.00,weatherlink.com 1.10,2013-07-19 02:50:00,
2013-07-18 21:05:00,71.5,33.0,32.02,West,277,10.0,14.0,24,0.00,,,0.00,weatherlink.com 1.10,2013-07-19 03:05:00,
2013-07-18 21:20:00,70.6,31.0,32.03,WNW,298,8.0,16.0,23,0.00,,,0.00,weatherlink.com 1.10,2013-07-19 03:20:00,
2013-07-18 21:35:00,69.8,30.0,32.03,WNW,291,9.0,14.0,23,0.00,,,0.00,weatherlink.com 1.10,2013-07-19 03:35:00,
2013-07-18 21:50:00,69.5,31.0,32.03,WNW,291,8.0,13.0,24,0.00,,,0.00,weatherlink.com 1.10,2013-07-19 03:50:00,
2013-07-18 22:05:00,69.3,31.0,32.04,WNW,294,8.0,14.0,24,0.00,,,0.00,weatherlink.com 1.10,2013-07-19 04:05:00,
2013-07-18 22:20:00,69.0,31.0,32.05,WNW,295,10.0,17.0,24,0.00,,,0.00,weatherlink.com 1.10,2013-07-19 04:20:00,
2013-07-18 22:35:00,68.6,30.0,32.05,NW,310,7.0,17.0,24,0.00,,,0.00,weatherlink.com 1.10,2013-07-19 04:35:00,
2013-07-18 22:50:00,68.1,30.0,32.05,NW,313,12.0,15.0,24,0.00,,,0.00,weatherlink.com 1.10,2013-07-19 04:50:00,
2013-07-18 23:05:00,68.0,30.0,32.05,WNW,298,10.0,16.0,24,0.00,,,0.00,weatherlink.com 1.10,2013-07-19 05:05:00,
2013-07-18 23:20:00,67.9,30.0,32.05,NW,317,12.0,15.0,24,0.00,,,0.00,weatherlink.com 1.10,2013-07-19 05:20:00,
2013-07-18 23:35:00,67.9,30.0,32.06,NW,317,12.0,16.0,24,0.00,,,0.00,weatherlink.com 1.10,2013-07-19 05:35:00,
2013-07-18 23:50:00,67.7,30.0,32.06,NW,319,9.0,12.0,24,0.00,,,0.00,weatherlink.com 1.10,2013-07-19 05:50:00,